createdAt,value
2018-07-23T00:00:08.378Z,78.10
2018-07-23T00:01:05.821Z,78.10
2018-07-23T00:02:10.434Z,78.10
2018-07-23T00:03:07.998Z,78.10
2018-07-23T00:04:05.462Z,78.10
2018-07-23T00:05:11.108Z,77.90
2018-07-23T00:06:05.503Z,77.90
2018-07-23T00:07:06.671Z,78.00
2018-07-23T00:08:05.973Z,77.90
2018-07-23T00:09:16.038Z,77.80
2018-07-23T00:10:05.503Z,77.80
2018-07-23T00:11:13.710Z,77.90
2018-07-23T00:12:06.181Z,77.90
2018-07-23T00:13:05.916Z,78.10
2018-07-23T00:14:13.829Z,78.00
2018-07-23T00:15:06.480Z,78.10
2018-07-23T00:16:05.526Z,78.00
2018-07-23T00:17:06.355Z,78.10
2018-07-23T00:18:05.827Z,78.00
2018-07-23T00:19:05.790Z,78.10
2018-07-23T00:20:05.628Z,78.10
2018-07-23T00:21:09.127Z,78.00
2018-07-23T00:22:08.754Z,78.10
2018-07-23T00:23:06.527Z,77.90
2018-07-23T00:24:06.479Z,78.00
2018-07-23T00:25:05.702Z,78.00
2018-07-23T00:26:08.488Z,78.00
2018-07-23T00:27:05.999Z,78.00
2018-07-23T00:28:05.798Z,77.90
2018-07-23T00:29:06.315Z,77.90
2018-07-23T00:30:05.689Z,78.00
2018-07-23T00:31:05.852Z,77.90
2018-07-23T00:32:08.657Z,78.00
2018-07-23T00:33:06.076Z,77.90
2018-07-23T00:34:05.464Z,77.80
2018-07-23T00:35:06.215Z,77.80
2018-07-23T00:36:05.829Z,77.90
2018-07-23T00:37:06.524Z,77.90
2018-07-23T00:38:10.201Z,78.00
2018-07-23T00:39:05.720Z,78.00
2018-07-23T00:40:10.575Z,78.20
2018-07-23T00:41:09.032Z,78.20
2018-07-23T00:42:05.583Z,78.10
2018-07-23T00:43:06.440Z,78.10
2018-07-23T00:44:05.543Z,78.20
2018-07-23T00:45:06.240Z,78.30
2018-07-23T00:46:06.138Z,78.40
2018-07-23T00:47:05.939Z,78.40
2018-07-23T00:48:08.700Z,78.70
2018-07-23T00:49:06.367Z,78.80
2018-07-23T00:50:06.311Z,78.70
2018-07-23T00:51:06.310Z,78.70
2018-07-23T00:52:11.248Z,78.70
2018-07-23T00:53:05.577Z,78.70
2018-07-23T00:54:06.161Z,78.70
2018-07-23T00:55:09.716Z,78.70
2018-07-23T00:56:08.796Z,78.80
2018-07-23T00:57:09.528Z,78.90
2018-07-23T00:58:10.990Z,78.80
2018-07-23T00:59:06.251Z,79.00
2018-07-23T01:00:06.300Z,79.00
2018-07-23T01:01:05.648Z,79.00
2018-07-23T01:02:06.583Z,78.90
2018-07-23T01:03:06.643Z,78.90
2018-07-23T01:04:06.131Z,79.00
2018-07-23T01:05:06.090Z,79.00
2018-07-23T01:06:06.043Z,79.00
2018-07-23T01:07:08.822Z,79.20
2018-07-23T01:08:06.402Z,79.10
2018-07-23T01:09:06.173Z,79.10
2018-07-23T01:10:06.294Z,79.00
2018-07-23T01:11:10.999Z,79.10
2018-07-23T01:12:11.171Z,79.10
2018-07-23T01:13:16.076Z,79.20
2018-07-23T01:14:05.984Z,79.10
2018-07-23T01:15:10.650Z,79.30
2018-07-23T01:16:10.909Z,79.30
2018-07-23T01:17:06.936Z,79.20
2018-07-23T01:18:05.487Z,79.20
2018-07-23T01:19:10.645Z,79.30
2018-07-23T01:20:08.873Z,79.40
2018-07-23T01:21:06.333Z,79.40
2018-07-23T01:22:06.569Z,79.30
2018-07-23T01:23:05.849Z,79.30
2018-07-23T01:24:11.273Z,79.40
2018-07-23T01:25:05.450Z,79.30
2018-07-23T01:26:05.936Z,79.30
2018-07-23T01:27:05.612Z,79.30
2018-07-23T01:28:05.971Z,79.30
2018-07-23T01:29:06.688Z,79.30
2018-07-23T01:30:06.333Z,79.40
2018-07-23T01:31:10.557Z,79.30
2018-07-23T01:32:05.654Z,79.30
2018-07-23T01:33:13.731Z,79.20
2018-07-23T01:34:06.202Z,79.30
2018-07-23T01:35:06.344Z,79.20
2018-07-23T01:36:05.945Z,79.20
2018-07-23T01:37:06.093Z,79.10
2018-07-23T01:38:06.346Z,79.10
2018-07-23T01:39:07.908Z,79.20
2018-07-23T01:40:10.860Z,79.20
2018-07-23T01:41:06.933Z,79.10
2018-07-23T01:42:05.910Z,79.20
2018-07-23T01:43:06.097Z,79.10
2018-07-23T01:44:08.570Z,79.10
2018-07-23T01:45:11.060Z,79.10
2018-07-23T01:46:05.424Z,79.10
2018-07-23T01:47:06.345Z,79.10
2018-07-23T01:48:11.115Z,79.10
2018-07-23T01:49:08.810Z,79.10
2018-07-23T01:50:06.718Z,79.10
2018-07-23T01:51:05.483Z,79.10
2018-07-23T01:52:06.390Z,79.10
2018-07-23T01:53:06.069Z,79.00
2018-07-23T01:54:11.018Z,78.90
2018-07-23T01:55:10.628Z,79.00
2018-07-23T01:56:06.130Z,79.00
2018-07-23T01:57:09.591Z,79.00
2018-07-23T01:58:06.330Z,79.00
2018-07-23T01:59:05.837Z,78.90
2018-07-23T02:00:10.429Z,78.90
2018-07-23T02:01:10.725Z,78.90
2018-07-23T02:02:08.687Z,78.80
2018-07-23T02:03:13.660Z,78.90
2018-07-23T02:04:06.514Z,79.00
2018-07-23T02:05:06.309Z,79.00
2018-07-23T02:06:06.381Z,78.90
2018-07-23T02:07:05.562Z,79.00
2018-07-23T02:08:10.604Z,79.00
2018-07-23T02:09:05.883Z,79.10
2018-07-23T02:10:05.604Z,79.10
2018-07-23T02:11:05.572Z,79.20
2018-07-23T02:12:07.237Z,79.20
2018-07-23T02:13:05.660Z,79.30
2018-07-23T02:14:11.246Z,79.30
2018-07-23T02:15:05.637Z,79.40
2018-07-23T02:16:09.559Z,79.50
2018-07-23T02:17:06.452Z,79.40
2018-07-23T02:18:13.788Z,79.40
2018-07-23T02:19:11.444Z,79.50
2018-07-23T02:20:06.024Z,79.50
2018-07-23T02:21:06.018Z,79.50
2018-07-23T02:22:08.345Z,79.60
2018-07-23T02:23:08.572Z,79.40
2018-07-23T02:24:05.539Z,79.60
2018-07-23T02:25:05.919Z,79.50
2018-07-23T02:26:09.409Z,79.60
2018-07-23T02:27:05.913Z,79.50
2018-07-23T02:28:05.854Z,79.40
2018-07-23T02:29:06.404Z,79.60
2018-07-23T02:30:06.107Z,79.70
2018-07-23T02:31:11.136Z,79.60
2018-07-23T02:32:11.179Z,79.60
2018-07-23T02:33:06.133Z,79.60
2018-07-23T02:34:08.312Z,79.60
2018-07-23T02:35:06.007Z,79.60
2018-07-23T02:36:05.638Z,79.60
2018-07-23T02:37:06.835Z,79.60
2018-07-23T02:38:10.880Z,79.60
2018-07-23T02:39:06.315Z,79.60
2018-07-23T02:40:09.457Z,79.60
2018-07-23T02:41:10.875Z,79.60
2018-07-23T02:42:06.459Z,79.60
2018-07-23T02:43:06.215Z,79.60
2018-07-23T02:44:10.522Z,79.70
2018-07-23T02:45:05.848Z,79.80
2018-07-23T02:46:08.417Z,79.70
2018-07-23T02:47:09.023Z,79.80
2018-07-23T02:48:05.925Z,79.80
2018-07-23T02:49:08.130Z,79.80
2018-07-23T02:50:05.636Z,79.80
2018-07-23T02:51:06.001Z,79.70
2018-07-23T02:52:06.317Z,79.70
2018-07-23T02:53:10.924Z,79.60
2018-07-23T02:54:05.941Z,79.60
2018-07-23T02:55:06.001Z,79.80
2018-07-23T02:56:06.109Z,79.80
2018-07-23T02:57:06.362Z,80.10
2018-07-23T02:58:06.027Z,80.10
2018-07-23T02:59:05.949Z,80.00
2018-07-23T03:00:11.361Z,80.10
2018-07-23T03:01:06.250Z,80.10
2018-07-23T03:02:08.332Z,80.30
2018-07-23T03:03:08.298Z,80.20
2018-07-23T03:04:10.721Z,80.20
2018-07-23T03:05:09.241Z,80.30
2018-07-23T03:06:08.872Z,80.60
2018-07-23T03:07:06.357Z,80.60
2018-07-23T03:08:05.489Z,80.80
2018-07-23T03:09:05.556Z,80.60
2018-07-23T03:10:08.746Z,80.50
2018-07-23T03:11:08.956Z,80.50
2018-07-23T03:12:09.307Z,80.50
2018-07-23T03:13:06.062Z,80.50
2018-07-23T03:14:11.130Z,80.60
2018-07-23T03:15:05.975Z,80.60
2018-07-23T03:16:06.347Z,80.60
2018-07-23T03:17:05.904Z,80.50
2018-07-23T03:18:09.051Z,80.50
2018-07-23T03:19:05.629Z,80.50
2018-07-23T03:20:11.437Z,80.50
2018-07-23T03:21:05.791Z,80.60
2018-07-23T03:22:05.905Z,80.60
2018-07-23T03:23:11.312Z,80.60
2018-07-23T03:24:08.444Z,80.60
2018-07-23T03:25:05.809Z,80.50
2018-07-23T03:26:05.926Z,80.60
2018-07-23T03:27:05.383Z,80.50
2018-07-23T03:28:09.464Z,80.60
2018-07-23T03:29:10.949Z,80.60
2018-07-23T03:30:06.037Z,80.60
2018-07-23T03:31:05.650Z,80.70
2018-07-23T03:32:10.604Z,80.70
2018-07-23T03:33:09.308Z,80.60
2018-07-23T03:34:06.095Z,80.50
2018-07-23T03:35:09.655Z,80.50
2018-07-23T03:36:06.148Z,80.50
2018-07-23T03:37:05.626Z,80.50
2018-07-23T03:38:06.242Z,80.50
2018-07-23T03:39:05.714Z,80.50
2018-07-23T03:40:08.956Z,80.50
2018-07-23T03:41:05.703Z,80.50
2018-07-23T03:42:06.612Z,80.50
2018-07-23T03:43:05.636Z,80.50
2018-07-23T03:44:11.088Z,80.60
2018-07-23T03:45:06.353Z,80.60
2018-07-23T03:46:06.312Z,80.50
2018-07-23T03:47:06.217Z,80.50
2018-07-23T03:48:08.680Z,80.60
2018-07-23T03:49:09.288Z,80.70
2018-07-23T03:50:10.672Z,80.70
2018-07-23T03:51:10.687Z,80.70
2018-07-23T03:52:06.007Z,80.70
2018-07-23T03:53:08.747Z,80.70
2018-07-23T03:54:06.578Z,80.70
2018-07-23T03:55:05.586Z,80.70
2018-07-23T03:56:05.699Z,80.70
2018-07-23T03:57:08.746Z,80.80
2018-07-23T03:58:07.095Z,80.70
2018-07-23T03:59:08.211Z,80.70
2018-07-23T04:00:05.949Z,80.60
2018-07-23T04:01:05.894Z,80.70
2018-07-23T04:02:09.671Z,80.80
2018-07-23T04:03:06.370Z,80.80
2018-07-23T04:04:08.725Z,80.70
2018-07-23T04:05:11.321Z,80.70
2018-07-23T04:06:05.730Z,80.70
2018-07-23T04:07:06.274Z,80.80
2018-07-23T04:08:05.968Z,80.70
2018-07-23T04:09:05.712Z,80.80
2018-07-23T04:10:10.846Z,80.90
2018-07-23T04:11:05.993Z,80.80
2018-07-23T04:12:05.877Z,81.10
2018-07-23T04:13:08.176Z,81.10
2018-07-23T04:14:08.210Z,80.90
2018-07-23T04:15:05.638Z,81.10
2018-07-23T04:16:06.346Z,81.10
2018-07-23T04:17:05.859Z,81.10
2018-07-23T04:18:05.464Z,81.20
2018-07-23T04:19:05.632Z,81.30
2018-07-23T04:20:09.278Z,81.40
2018-07-23T04:21:05.913Z,81.30
2018-07-23T04:22:08.494Z,81.50
2018-07-23T04:23:06.282Z,81.40
2018-07-23T04:24:10.454Z,81.40
2018-07-23T04:25:11.172Z,81.40
2018-07-23T04:26:10.590Z,81.40
2018-07-23T04:27:10.935Z,81.50
2018-07-23T04:28:06.117Z,81.50
2018-07-23T04:29:08.052Z,81.60
2018-07-23T04:30:05.892Z,81.60
2018-07-23T04:31:05.448Z,81.50
2018-07-23T04:32:06.571Z,81.60
2018-07-23T04:33:05.884Z,81.60
2018-07-23T04:34:10.663Z,81.70
2018-07-23T04:35:14.385Z,81.70
2018-07-23T04:36:05.815Z,81.60
2018-07-23T04:37:05.977Z,81.60
2018-07-23T04:38:05.590Z,81.70
2018-07-23T04:39:06.104Z,81.80
2018-07-23T04:40:05.968Z,81.80
2018-07-23T04:41:06.557Z,82.10
2018-07-23T04:42:09.257Z,82.00
2018-07-23T04:43:05.633Z,81.80
2018-07-23T04:44:06.568Z,82.00
2018-07-23T04:45:05.788Z,81.90
2018-07-23T04:46:10.465Z,81.90
2018-07-23T04:47:08.586Z,81.90
2018-07-23T04:48:13.523Z,81.90
2018-07-23T04:49:05.942Z,81.90
2018-07-23T04:50:13.917Z,82.00
2018-07-23T04:51:06.404Z,82.00
2018-07-23T04:52:09.065Z,82.00
2018-07-23T04:53:06.605Z,82.00
2018-07-23T04:54:05.836Z,82.00
2018-07-23T04:55:06.565Z,82.00
2018-07-23T04:56:05.940Z,82.10
2018-07-23T04:57:06.045Z,82.20
2018-07-23T04:58:08.998Z,82.10
2018-07-23T04:59:05.394Z,82.10
2018-07-23T05:00:05.579Z,82.10
2018-07-23T05:01:06.115Z,82.00
2018-07-23T05:02:05.803Z,82.00
2018-07-23T05:03:05.857Z,82.10
2018-07-23T05:04:05.520Z,82.10
2018-07-23T05:05:06.117Z,82.00
2018-07-23T05:06:05.930Z,82.00
2018-07-23T05:07:08.955Z,81.90
2018-07-23T05:08:06.341Z,81.90
2018-07-23T05:09:05.980Z,81.80
2018-07-23T05:10:05.496Z,81.80
2018-07-23T05:11:09.033Z,81.70
2018-07-23T05:12:05.438Z,81.70
2018-07-23T05:13:06.916Z,81.70
2018-07-23T05:14:08.328Z,81.60
2018-07-23T05:15:11.186Z,81.70
2018-07-23T05:16:08.417Z,81.70
2018-07-23T05:17:06.288Z,81.70
2018-07-23T05:18:09.378Z,81.70
2018-07-23T05:19:08.432Z,81.60
2018-07-23T05:20:05.791Z,81.70
2018-07-23T05:21:05.925Z,81.70
2018-07-23T05:22:05.748Z,81.60
2018-07-23T05:23:10.765Z,81.60
2018-07-23T05:24:06.836Z,81.50
2018-07-23T05:25:08.827Z,81.60
2018-07-23T05:26:11.917Z,81.60
2018-07-23T05:27:05.468Z,81.60
2018-07-23T05:28:05.603Z,81.60
2018-07-23T05:29:06.235Z,81.60
2018-07-23T05:30:11.353Z,81.60
2018-07-23T05:31:06.000Z,81.60
2018-07-23T05:32:05.826Z,81.60
2018-07-23T05:33:05.748Z,81.50
2018-07-23T05:34:05.627Z,81.50
2018-07-23T05:35:06.434Z,81.40
2018-07-23T05:36:06.507Z,81.40
2018-07-23T05:37:06.027Z,81.30
2018-07-23T05:38:08.994Z,81.30
2018-07-23T05:39:09.666Z,81.30
2018-07-23T05:40:06.511Z,81.30
2018-07-23T05:41:09.695Z,81.20
2018-07-23T05:42:06.378Z,81.20
2018-07-23T05:43:06.441Z,81.20
2018-07-23T05:44:06.232Z,81.30
2018-07-23T05:45:06.067Z,81.30
2018-07-23T05:46:09.422Z,81.40
2018-07-23T05:47:08.436Z,81.40
2018-07-23T05:48:05.837Z,81.40
2018-07-23T05:49:11.379Z,81.40
2018-07-23T05:50:06.588Z,81.40
2018-07-23T05:51:09.463Z,81.30
2018-07-23T05:52:11.902Z,81.30
2018-07-23T05:53:06.299Z,81.40
2018-07-23T05:54:09.156Z,81.50
2018-07-23T05:55:06.743Z,81.50
2018-07-23T05:56:09.965Z,81.40
2018-07-23T05:57:10.434Z,81.40
2018-07-23T05:58:10.632Z,81.40
2018-07-23T05:59:08.401Z,81.50
2018-07-23T06:00:09.121Z,81.40
2018-07-23T06:01:05.705Z,81.40
2018-07-23T06:02:11.111Z,81.30
2018-07-23T06:03:11.153Z,81.30
2018-07-23T06:04:06.229Z,81.30
2018-07-23T06:05:05.624Z,81.30
2018-07-23T06:06:09.262Z,81.50
2018-07-23T06:07:05.703Z,81.40
2018-07-23T06:08:10.666Z,81.40
2018-07-23T06:09:05.924Z,81.30
2018-07-23T06:10:10.914Z,81.20
2018-07-23T06:11:11.023Z,81.20
2018-07-23T06:12:06.581Z,81.30
2018-07-23T06:13:06.432Z,81.20
2018-07-23T06:14:05.532Z,81.00
2018-07-23T06:15:05.724Z,80.70
2018-07-23T06:16:11.186Z,80.70
2018-07-23T06:17:06.774Z,80.80
2018-07-23T06:18:06.073Z,80.30
2018-07-23T06:19:10.934Z,79.40
2018-07-23T06:20:08.236Z,79.00
2018-07-23T06:21:08.428Z,78.80
2018-07-23T06:22:08.639Z,78.50
2018-07-23T06:23:06.138Z,78.50
2018-07-23T06:24:08.262Z,77.70
2018-07-23T06:25:06.040Z,77.70
2018-07-23T06:26:06.506Z,77.60
2018-07-23T06:27:06.031Z,77.00
2018-07-23T06:28:05.860Z,76.70
2018-07-23T06:29:11.071Z,76.10
2018-07-23T06:30:06.393Z,76.10
2018-07-23T06:31:06.372Z,75.40
2018-07-23T06:32:05.470Z,74.80
2018-07-23T06:33:06.124Z,74.20
2018-07-23T06:34:05.734Z,73.80
2018-07-23T06:35:05.811Z,73.60
2018-07-23T06:36:08.324Z,72.50
2018-07-23T06:37:05.811Z,72.60
2018-07-23T06:38:11.245Z,70.70
2018-07-23T06:39:05.840Z,70.80
2018-07-23T06:40:06.317Z,71.00
2018-07-23T06:41:10.920Z,70.90
2018-07-23T06:42:09.445Z,70.20
2018-07-23T06:43:06.297Z,70.20
2018-07-23T06:44:06.214Z,70.00
2018-07-23T06:45:05.661Z,69.90
2018-07-23T06:46:08.065Z,68.20
2018-07-23T06:47:07.975Z,67.80
2018-07-23T06:48:06.290Z,67.80
2018-07-23T06:49:10.799Z,67.30
2018-07-23T06:50:16.280Z,66.10
2018-07-23T06:51:08.208Z,66.20
2018-07-23T06:52:05.544Z,66.20
2018-07-23T06:53:06.790Z,65.80
2018-07-23T06:54:11.482Z,65.60
2018-07-23T06:55:05.994Z,65.60
2018-07-23T06:56:05.914Z,65.80
2018-07-23T06:57:09.531Z,65.60
2018-07-23T06:58:06.101Z,65.60
2018-07-23T06:59:09.737Z,63.50
2018-07-23T07:00:06.320Z,63.40
2018-07-23T07:01:05.753Z,63.60
2018-07-23T07:02:08.764Z,63.10
2018-07-23T07:03:08.660Z,63.40
2018-07-23T07:04:08.931Z,63.40
2018-07-23T07:05:06.242Z,63.40
2018-07-23T07:06:06.054Z,63.30
2018-07-23T07:07:05.618Z,63.60
2018-07-23T07:08:05.440Z,61.40
2018-07-23T07:09:06.202Z,61.90
2018-07-23T07:10:06.220Z,61.50
2018-07-23T07:11:06.069Z,61.50
2018-07-23T07:12:05.603Z,62.20
2018-07-23T07:13:06.440Z,62.60
2018-07-23T07:14:10.858Z,60.90
2018-07-23T07:15:06.314Z,60.70
2018-07-23T07:16:06.314Z,60.00
2018-07-23T07:17:09.809Z,59.30
2018-07-23T07:18:06.696Z,59.30
2018-07-23T07:19:10.733Z,58.60
2018-07-23T07:20:05.797Z,58.60
2018-07-23T07:21:10.640Z,58.80
2018-07-23T07:22:08.190Z,59.20
2018-07-23T07:23:08.862Z,59.20
2018-07-23T07:24:09.622Z,59.10
2018-07-23T07:25:06.050Z,59.00
2018-07-23T07:26:08.402Z,59.00
2018-07-23T07:27:08.678Z,58.70
2018-07-23T07:28:09.782Z,58.40
2018-07-23T07:29:06.635Z,58.50
2018-07-23T07:30:06.837Z,58.50
2018-07-23T07:31:05.521Z,55.80
2018-07-23T07:32:06.088Z,54.10
2018-07-23T07:33:05.783Z,52.00
2018-07-23T07:34:06.067Z,52.10
2018-07-23T07:35:06.314Z,51.20
2018-07-23T07:36:05.932Z,50.90
2018-07-23T07:37:05.591Z,50.80
2018-07-23T07:38:06.710Z,50.40
2018-07-23T07:39:09.379Z,50.20
2018-07-23T07:40:08.838Z,50.00
2018-07-23T07:41:06.631Z,50.00
2018-07-23T07:42:08.436Z,49.90
2018-07-23T07:43:06.172Z,49.80
2018-07-23T07:44:06.005Z,50.00
2018-07-23T07:45:11.253Z,49.80
2018-07-23T07:46:11.390Z,49.80
2018-07-23T07:47:05.742Z,49.20
2018-07-23T07:48:05.580Z,49.20
2018-07-23T07:49:06.238Z,49.40
2018-07-23T07:50:05.619Z,48.90
2018-07-23T07:51:09.553Z,48.20
2018-07-23T07:52:10.977Z,48.20
2018-07-23T07:53:06.458Z,47.60
2018-07-23T07:54:06.468Z,47.60
2018-07-23T07:55:06.428Z,41.60
2018-07-23T07:56:06.215Z,48.10
2018-07-23T07:57:06.322Z,48.00
2018-07-23T07:58:05.976Z,47.00
2018-07-23T07:59:09.160Z,47.30
2018-07-23T08:00:10.664Z,47.20
2018-07-23T08:01:10.655Z,47.20
2018-07-23T08:02:05.477Z,47.20
2018-07-23T08:03:06.349Z,45.40
2018-07-23T08:04:08.526Z,45.20
2018-07-23T08:05:08.522Z,45.40
2018-07-23T08:06:06.080Z,45.40
2018-07-23T08:07:06.148Z,45.70
2018-07-23T08:08:06.640Z,45.10
2018-07-23T08:09:05.659Z,45.40
2018-07-23T08:10:10.970Z,44.90
2018-07-23T08:11:06.118Z,44.90
2018-07-23T08:12:05.676Z,45.40
2018-07-23T08:13:09.551Z,45.00
2018-07-23T08:14:05.952Z,45.00
2018-07-23T08:15:05.744Z,43.80
2018-07-23T08:16:05.709Z,44.20
2018-07-23T08:17:08.895Z,44.40
2018-07-23T08:18:06.331Z,44.40
2018-07-23T08:19:06.171Z,44.90
2018-07-23T08:20:06.390Z,44.40
2018-07-23T08:21:06.330Z,44.80
2018-07-23T08:22:06.440Z,44.40
2018-07-23T08:23:07.150Z,44.10
2018-07-23T08:24:06.326Z,43.50
2018-07-23T08:25:05.915Z,43.00
2018-07-23T08:26:06.541Z,42.60
2018-07-23T08:27:15.486Z,43.10
2018-07-23T08:28:06.058Z,43.20
2018-07-23T08:29:06.257Z,43.00
2018-07-23T08:30:06.019Z,43.30
2018-07-23T08:31:11.285Z,43.70
2018-07-23T08:32:09.149Z,43.20
2018-07-23T08:33:08.051Z,43.20
2018-07-23T08:34:05.494Z,43.20
2018-07-23T08:35:05.934Z,43.20
2018-07-23T08:36:05.888Z,43.10
2018-07-23T08:37:06.211Z,42.30
2018-07-23T08:38:08.553Z,41.70
2018-07-23T08:39:06.253Z,41.70
2018-07-23T08:40:10.964Z,41.80
2018-07-23T08:41:05.698Z,41.90
2018-07-23T08:42:05.789Z,41.50
2018-07-23T08:43:08.881Z,40.70
2018-07-23T08:44:08.800Z,39.70
2018-07-23T08:45:06.598Z,39.70
2018-07-23T08:46:06.374Z,40.20
2018-07-23T08:47:06.364Z,40.40
2018-07-23T08:48:05.505Z,40.50
2018-07-23T08:49:11.122Z,39.90
2018-07-23T08:50:06.618Z,39.90
2018-07-23T08:51:05.734Z,39.70
2018-07-23T08:52:06.373Z,39.70
2018-07-23T08:53:06.597Z,39.50
2018-07-23T08:54:05.512Z,38.70
2018-07-23T08:55:08.393Z,38.80
2018-07-23T08:56:05.760Z,38.90
2018-07-23T08:57:06.328Z,38.60
2018-07-23T08:58:06.032Z,38.40
2018-07-23T08:59:09.211Z,38.10
2018-07-23T09:00:08.422Z,38.10
2018-07-23T09:01:05.843Z,38.20
2018-07-23T09:02:06.546Z,38.70
2018-07-23T09:03:11.153Z,38.70
2018-07-23T09:04:14.473Z,38.20
2018-07-23T09:05:05.855Z,38.30
2018-07-23T09:06:05.543Z,38.30
2018-07-23T09:07:06.334Z,38.80
2018-07-23T09:08:08.914Z,38.70
2018-07-23T09:09:06.617Z,38.70
2018-07-23T09:10:05.737Z,38.90
2018-07-23T09:11:06.613Z,39.20
2018-07-23T09:12:05.921Z,39.40
2018-07-23T09:13:09.705Z,39.60
2018-07-23T09:14:11.215Z,39.60
2018-07-23T09:15:13.098Z,39.50
2018-07-23T09:16:08.239Z,39.80
2018-07-23T09:17:06.085Z,39.80
2018-07-23T09:18:05.694Z,40.20
2018-07-23T09:19:05.868Z,40.20
2018-07-23T09:20:06.929Z,40.20
2018-07-23T09:21:05.863Z,40.30
2018-07-23T09:22:06.657Z,40.20
2018-07-23T09:23:06.262Z,40.30
2018-07-23T09:24:05.996Z,40.40
2018-07-23T09:25:08.239Z,40.00
2018-07-23T09:26:05.718Z,40.00
2018-07-23T09:27:06.211Z,38.90
2018-07-23T09:28:05.929Z,40.20
2018-07-23T09:29:10.603Z,40.00
2018-07-23T09:30:05.713Z,39.90
2018-07-23T09:31:06.314Z,40.00
2018-07-23T09:32:10.881Z,39.80
2018-07-23T09:33:09.310Z,38.50
2018-07-23T09:34:10.785Z,38.40
2018-07-23T09:35:10.875Z,38.40
2018-07-23T09:36:06.144Z,38.20
2018-07-23T09:37:08.226Z,38.50
2018-07-23T09:38:05.887Z,38.50
2018-07-23T09:39:06.018Z,38.60
2018-07-23T09:40:05.914Z,38.40
2018-07-23T09:41:10.597Z,37.80
2018-07-23T09:42:05.630Z,37.80
2018-07-23T09:43:06.062Z,37.70
2018-07-23T09:44:06.319Z,38.00
2018-07-23T09:45:11.041Z,38.30
2018-07-23T09:46:08.698Z,38.60
2018-07-23T09:47:11.158Z,38.30
2018-07-23T09:48:08.990Z,37.80
2018-07-23T09:49:09.746Z,37.70
2018-07-23T09:50:07.163Z,37.70
2018-07-23T09:51:08.444Z,36.20
2018-07-23T09:52:05.876Z,36.20
2018-07-23T09:53:10.816Z,36.80
2018-07-23T09:54:06.180Z,36.80
2018-07-23T09:55:05.622Z,36.70
2018-07-23T09:56:06.082Z,36.20
2018-07-23T09:57:05.701Z,36.30
2018-07-23T09:58:06.304Z,36.00
2018-07-23T09:59:10.808Z,36.40
2018-07-23T10:00:09.299Z,36.70
2018-07-23T10:01:05.797Z,36.70
2018-07-23T10:02:05.455Z,36.20
2018-07-23T10:03:06.370Z,35.80
2018-07-23T10:04:05.930Z,36.10
2018-07-23T10:05:08.686Z,36.80
2018-07-23T10:06:05.696Z,36.80
2018-07-23T10:07:09.546Z,37.00
2018-07-23T10:08:05.941Z,37.00
2018-07-23T10:09:05.583Z,37.80
2018-07-23T10:10:05.884Z,38.00
2018-07-23T10:11:06.318Z,37.70
2018-07-23T10:12:08.492Z,37.50
2018-07-23T10:13:09.369Z,37.40
2018-07-23T10:14:05.817Z,37.30
2018-07-23T10:15:09.702Z,37.60
2018-07-23T10:16:06.589Z,37.60
2018-07-23T10:17:06.074Z,37.80
2018-07-23T10:18:06.138Z,37.90
2018-07-23T10:19:11.500Z,36.90
2018-07-23T10:20:05.865Z,37.00
2018-07-23T10:21:10.500Z,35.50
2018-07-23T10:22:05.742Z,35.40
2018-07-23T10:23:05.812Z,35.10
2018-07-23T10:24:05.683Z,35.40
2018-07-23T10:25:10.589Z,33.90
2018-07-23T10:26:05.839Z,33.80
2018-07-23T10:27:05.754Z,34.10
2018-07-23T10:28:05.640Z,32.90
2018-07-23T10:29:11.504Z,33.00
2018-07-23T10:30:05.731Z,33.00
2018-07-23T10:31:09.742Z,34.10
2018-07-23T10:32:10.021Z,34.00
2018-07-23T10:33:05.700Z,33.90
2018-07-23T10:34:05.618Z,34.50
2018-07-23T10:35:09.831Z,33.90
2018-07-23T10:36:06.395Z,33.90
2018-07-23T10:37:10.929Z,33.90
2018-07-23T10:38:06.274Z,33.80
2018-07-23T10:39:09.430Z,34.30
2018-07-23T10:40:06.054Z,34.30
2018-07-23T10:41:06.193Z,34.50
2018-07-23T10:42:06.168Z,33.90
2018-07-23T10:43:05.785Z,33.70
2018-07-23T10:44:05.992Z,32.50
2018-07-23T10:45:08.900Z,32.50
2018-07-23T10:46:05.927Z,32.50
2018-07-23T10:47:06.388Z,32.50
2018-07-23T10:48:06.243Z,32.50
2018-07-23T10:49:06.499Z,32.30
2018-07-23T10:50:05.723Z,32.30
2018-07-23T10:51:06.346Z,32.70
2018-07-23T10:52:05.601Z,32.60
2018-07-23T10:53:05.990Z,32.70
2018-07-23T10:54:05.911Z,32.20
2018-07-23T10:55:05.937Z,32.70
2018-07-23T10:56:05.757Z,32.60
2018-07-23T10:57:09.745Z,32.30
2018-07-23T10:58:06.237Z,32.30
2018-07-23T10:59:08.457Z,32.50
2018-07-23T11:00:05.623Z,32.50
2018-07-23T11:01:08.713Z,33.00
2018-07-23T11:02:06.168Z,33.00
2018-07-23T11:03:05.890Z,33.20
2018-07-23T11:04:06.177Z,33.50
2018-07-23T11:05:06.375Z,33.70
2018-07-23T11:06:06.010Z,33.10
2018-07-23T11:07:09.845Z,33.20
2018-07-23T11:08:05.632Z,33.20
2018-07-23T11:09:05.549Z,33.30
2018-07-23T11:10:06.322Z,32.70
2018-07-23T11:11:05.994Z,32.70
2018-07-23T11:12:06.059Z,32.50
2018-07-23T11:13:06.369Z,32.70
2018-07-23T11:14:05.884Z,33.00
2018-07-23T11:15:05.945Z,33.20
2018-07-23T11:16:06.525Z,32.90
2018-07-23T11:17:06.010Z,32.00
2018-07-23T11:18:05.734Z,30.90
2018-07-23T11:19:07.375Z,30.40
2018-07-23T11:20:05.985Z,31.00
2018-07-23T11:21:08.093Z,30.90
2018-07-23T11:22:06.028Z,30.90
2018-07-23T11:23:08.245Z,31.30
2018-07-23T11:24:06.536Z,31.30
2018-07-23T11:25:41.036Z,31.60
2018-07-23T11:26:05.623Z,31.80
2018-07-23T11:27:06.103Z,31.60
2018-07-23T11:28:05.846Z,31.60
2018-07-23T11:29:07.065Z,31.70
2018-07-23T11:30:08.496Z,31.80
2018-07-23T11:31:05.974Z,31.70
2018-07-23T11:32:06.046Z,31.40
2018-07-23T11:33:10.779Z,31.40
2018-07-23T11:34:09.180Z,31.50
2018-07-23T11:35:05.510Z,31.60
2018-07-23T11:36:08.858Z,32.00
2018-07-23T11:37:06.260Z,32.00
2018-07-23T11:38:05.764Z,30.50
2018-07-23T11:39:06.405Z,30.30
2018-07-23T11:40:06.020Z,30.90
2018-07-23T11:41:09.487Z,30.60
2018-07-23T11:42:09.195Z,30.60
2018-07-23T11:43:05.459Z,30.60
2018-07-23T11:44:05.511Z,30.90
2018-07-23T11:45:05.488Z,30.30
2018-07-23T11:46:25.314Z,29.70
2018-07-23T11:47:06.876Z,29.70
2018-07-23T11:48:06.426Z,30.40
2018-07-23T11:49:05.939Z,30.80
2018-07-23T11:50:08.052Z,31.20
2018-07-23T11:51:05.412Z,31.20
2018-07-23T11:52:05.539Z,30.90
2018-07-23T11:53:08.201Z,31.10
2018-07-23T11:54:05.633Z,31.20
2018-07-23T11:55:06.727Z,30.50
2018-07-23T11:56:11.273Z,30.90
2018-07-23T11:57:06.041Z,31.10
2018-07-23T11:58:05.927Z,31.20
2018-07-23T11:59:06.312Z,30.90
2018-07-23T12:00:05.853Z,31.00
2018-07-23T12:01:05.713Z,31.40
2018-07-23T12:02:09.800Z,31.30
2018-07-23T12:03:06.492Z,31.40
2018-07-23T12:04:11.119Z,31.10
2018-07-23T12:05:06.029Z,31.40
2018-07-23T12:06:05.987Z,31.60
2018-07-23T12:07:06.675Z,31.60
2018-07-23T12:08:06.170Z,31.80
2018-07-23T12:09:06.191Z,32.10
2018-07-23T12:10:10.838Z,31.20
2018-07-23T12:11:06.168Z,31.60
2018-07-23T12:12:05.509Z,30.80
2018-07-23T12:13:09.108Z,31.40
2018-07-23T12:14:05.913Z,31.40
2018-07-23T12:15:06.040Z,31.30
2018-07-23T12:16:05.860Z,31.40
2018-07-23T12:17:06.216Z,31.50
2018-07-23T12:18:05.985Z,31.30
2018-07-23T12:19:05.452Z,31.30
2018-07-23T12:20:06.024Z,31.20
2018-07-23T12:21:05.836Z,31.30
2018-07-23T12:22:11.090Z,31.20
2018-07-23T12:23:08.551Z,30.50
2018-07-23T12:24:09.072Z,30.20
2018-07-23T12:25:05.920Z,30.20
2018-07-23T12:26:05.753Z,30.20
2018-07-23T12:27:06.256Z,30.00
2018-07-23T12:28:05.983Z,29.90
2018-07-23T12:29:05.440Z,29.30
2018-07-23T12:30:11.331Z,28.80
2018-07-23T12:31:08.971Z,29.10
2018-07-23T12:32:05.640Z,29.10
2018-07-23T12:33:09.687Z,29.30
2018-07-23T12:34:08.648Z,29.50
2018-07-23T12:35:06.074Z,29.50
2018-07-23T12:36:05.652Z,29.20
2018-07-23T12:37:11.066Z,29.20
2018-07-23T12:38:06.556Z,29.50
2018-07-23T12:39:06.391Z,29.50
2018-07-23T12:40:08.127Z,29.30
2018-07-23T12:41:10.607Z,29.40
2018-07-23T12:42:05.879Z,29.60
2018-07-23T12:43:05.584Z,29.30
2018-07-23T12:44:06.051Z,29.60
2018-07-23T12:45:08.911Z,29.80
2018-07-23T12:46:05.801Z,29.70
2018-07-23T12:47:08.938Z,30.40
2018-07-23T12:48:07.921Z,30.30
2018-07-23T12:49:09.517Z,30.70
2018-07-23T12:50:08.973Z,30.90
2018-07-23T12:51:06.339Z,30.90
2018-07-23T12:52:05.523Z,31.00